Time;durP1;ratioP1;P1;durP2;ratioP2;P2;SDS_P1;SDS_P2;PMS_P1;PMS_P2;Temp;Humidity;BMP_temperature;BMP_pressure;BME280_temperature;BME280_humidity;BME280_pressure;Samples;Min_cycle;Max_cycle;Signal;HPM_P1;HPM_P2
2021/10/18 00:01:28;;;;;;;21.57;14.70;;;;;;;;;;768757;182;919429;-65
2021/10/18 00:03:53;;;;;;;19.37;14.50;;;;;;;;;;766995;182;1020254;-64
2021/10/18 00:06:19;;;;;;;20.63;14.00;;;;;;;;;;770946;182;918799;-65
2021/10/18 00:08:45;;;;;;;17.73;13.90;;;;;;;;;;767715;182;919455;-65
2021/10/18 00:11:11;;;;;;;21.73;13.40;;;;;;;;;;770290;179;919497;-65
2021/10/18 00:13:37;;;;;;;20.33;14.82;;;;;;;;;;770678;182;919574;-64
2021/10/18 00:16:03;;;;;;;27.17;15.40;;;;;;;;;;774491;179;871902;-65
2021/10/18 00:18:29;;;;;;;22.40;15.77;;;;;;;;;;766102;182;918073;-65
2021/10/18 00:20:55;;;;;;;21.30;15.10;;;;;;;;;;769948;180;919209;-63
2021/10/18 00:23:21;;;;;;;20.80;15.10;;;;;;;;;;776061;181;919006;-65
2021/10/18 00:25:47;;;;;;;22.90;14.80;;;;;;;;;;770134;181;919323;-64
2021/10/18 00:28:13;;;;;;;21.20;12.90;;;;;;;;;;771697;182;920116;-66
2021/10/18 00:30:38;;;;;;;20.07;15.10;;;;;;;;;;776489;182;919143;-64
2021/10/18 00:33:04;;;;;;;19.00;15.10;;;;;;;;;;769280;182;920442;-64
2021/10/18 00:35:30;;;;;;;22.33;14.67;;;;;;;;;;767691;182;919472;-68
2021/10/18 00:37:56;;;;;;;20.80;15.40;;;;;;;;;;775184;182;919228;-65
2021/10/18 00:40:22;;;;;;;20.75;14.18;;;;;;;;;;769680;182;919256;-64
2021/10/18 00:42:50;;;;;;;20.70;14.77;;;;;;;;;;769642;182;919597;-64
2021/10/18 00:45:14;;;;;;;18.10;14.20;;;;;;;;;;764658;182;1021151;-65
2021/10/18 00:47:40;;;;;;;18.43;14.50;;;;;;;;;;773595;182;919694;-67
2021/10/18 00:50:07;;;;;;;21.97;14.60;;;;;;;;;;769687;182;919436;-64
2021/10/18 00:52:33;;;;;;;18.03;13.57;;;;;;;;;;770487;182;919082;-64
2021/10/18 00:54:58;;;;;;;18.50;14.40;;;;;;;;;;768569;182;934491;-64
2021/10/18 00:57:24;;;;;;;17.30;13.70;;;;;;;;;;762915;182;919107;-64
2021/10/18 00:59:51;;;;;;;19.07;11.93;;;;;;;;;;768864;182;919401;-64
2021/10/18 01:02:16;;;;;;;19.50;13.80;;;;;;;;;;771650;182;919660;-65
2021/10/18 01:04:42;;;;;;;23.13;14.73;;;;;;;;;;766162;182;919619;-64
2021/10/18 01:07:08;;;;;;;21.80;14.83;;;;;;;;;;769782;182;921068;-65
2021/10/18 01:09:33;;;;;;;24.20;13.83;;;;;;;;;;765557;182;919639;-64
2021/10/18 01:11:59;;;;;;;20.53;12.57;;;;;;;;;;772884;182;1020540;-64
2021/10/18 01:14:25;;;;;;;21.23;14.20;;;;;;;;;;769407;182;919402;-64
2021/10/18 01:16:51;;;;;;;17.43;11.77;;;;;;;;;;764221;182;917892;-64
2021/10/18 01:19:17;;;;;;;18.00;13.43;;;;;;;;;;772462;182;917186;-64
2021/10/18 01:21:43;;;;;;;19.60;13.30;;;;;;;;;;767788;180;914731;-64
2021/10/18 01:24:09;;;;;;;18.43;13.30;;;;;;;;;;767769;180;918972;-64
2021/10/18 01:26:35;;;;;;;15.77;12.13;;;;;;;;;;771961;182;920732;-64
2021/10/18 01:29:01;;;;;;;21.17;13.30;;;;;;;;;;765672;182;920158;-66
2021/10/18 01:31:27;;;;;;;17.67;14.50;;;;;;;;;;763983;182;920826;-64
2021/10/18 01:33:52;;;;;;;18.47;12.77;;;;;;;;;;772014;180;919983;-64
2021/10/18 01:36:18;;;;;;;23.90;16.13;;;;;;;;;;767963;183;922660;-65
2021/10/18 01:38:44;;;;;;;17.00;12.00;;;;;;;;;;768940;182;919870;-64
2021/10/18 01:41:10;;;;;;;18.00;12.45;;;;;;;;;;769722;182;920162;-67
2021/10/18 01:43:36;;;;;;;21.03;12.13;;;;;;;;;;773473;182;920124;-64
2021/10/18 01:46:03;;;;;;;20.83;12.50;;;;;;;;;;763463;182;922942;-64
2021/10/18 01:48:27;;;;;;;18.80;13.07;;;;;;;;;;768544;182;919747;-64
2021/10/18 01:50:53;;;;;;;22.30;12.57;;;;;;;;;;773008;182;918947;-65
2021/10/18 01:53:19;;;;;;;15.80;13.13;;;;;;;;;;768645;182;1021464;-64
2021/10/18 01:55:45;;;;;;;19.20;13.48;;;;;;;;;;764562;182;919585;-65
2021/10/18 01:58:11;;;;;;;19.08;13.05;;;;;;;;;;772585;182;919379;-65
2021/10/18 02:00:37;;;;;;;16.23;12.83;;;;;;;;;;769552;182;919427;-65
2021/10/18 02:03:03;;;;;;;26.00;13.63;;;;;;;;;;768569;182;919756;-65
2021/10/18 02:05:29;;;;;;;19.70;13.27;;;;;;;;;;767080;182;919176;-64
2021/10/18 02:07:55;;;;;;;19.93;13.33;;;;;;;;;;773310;182;919335;-64
2021/10/18 02:10:20;;;;;;;16.65;13.45;;;;;;;;;;766537;182;920035;-64
2021/10/18 02:12:46;;;;;;;24.33;14.60;;;;;;;;;;768638;182;919086;-65
2021/10/18 02:15:12;;;;;;;24.23;14.47;;;;;;;;;;773595;182;921704;-66
2021/10/18 02:17:38;;;;;;;22.63;15.20;;;;;;;;;;763681;182;920123;-65
2021/10/18 02:20:05;;;;;;;21.07;15.50;;;;;;;;;;769424;182;922761;-65
2021/10/18 02:22:32;;;;;;;20.92;15.25;;;;;;;;;;765392;182;918932;-63
2021/10/18 02:24:58;;;;;;;20.43;14.93;;;;;;;;;;769100;183;919423;-64
2021/10/18 02:27:23;;;;;;;23.27;15.57;;;;;;;;;;762761;182;919496;-65
2021/10/18 02:29:49;;;;;;;28.30;19.17;;;;;;;;;;764253;182;920872;-65
2021/10/18 02:32:15;;;;;;;24.13;18.07;;;;;;;;;;770522;182;919018;-64
2021/10/18 02:34:41;;;;;;;24.33;18.27;;;;;;;;;;763955;182;917750;-64
2021/10/18 02:37:07;;;;;;;35.13;20.97;;;;;;;;;;762510;182;920825;-64
2021/10/18 02:39:33;;;;;;;28.80;19.77;;;;;;;;;;774191;182;920471;-64
2021/10/18 02:41:58;;;;;;;28.62;19.17;;;;;;;;;;768162;182;916915;-64
2021/10/18 02:44:24;;;;;;;34.63;19.63;;;;;;;;;;768529;180;915943;-63
2021/10/18 02:46:50;;;;;;;29.93;20.57;;;;;;;;;;767730;179;915939;-64
2021/10/18 02:49:16;;;;;;;36.83;18.97;;;;;;;;;;767883;182;914198;-65
2021/10/18 02:51:42;;;;;;;30.70;20.63;;;;;;;;;;768686;181;920031;-64
2021/10/18 02:54:09;;;;;;;34.70;23.73;;;;;;;;;;768555;182;919669;-63
2021/10/18 02:56:33;;;;;;;34.03;24.40;;;;;;;;;;774508;182;914399;-64
2021/10/18 02:58:59;;;;;;;39.20;22.20;;;;;;;;;;766653;182;919070;-66
2021/10/18 03:01:25;;;;;;;52.55;26.40;;;;;;;;;;770526;182;909657;-64
2021/10/18 03:03:51;;;;;;;51.77;28.90;;;;;;;;;;774613;182;919026;-64
2021/10/18 03:06:17;;;;;;;54.73;30.17;;;;;;;;;;770385;182;919924;-64
2021/10/18 03:08:43;;;;;;;45.40;26.80;;;;;;;;;;767499;182;918996;-64
2021/10/18 03:11:08;;;;;;;55.50;34.20;;;;;;;;;;774921;182;915889;-63
2021/10/18 03:13:34;;;;;;;60.60;32.67;;;;;;;;;;768606;182;919516;-63
2021/10/18 03:16:00;;;;;;;64.57;36.20;;;;;;;;;;762963;183;935334;-63
2021/10/18 03:18:26;;;;;;;58.90;35.63;;;;;;;;;;767092;182;921445;-64
2021/10/18 03:20:52;;;;;;;62.50;36.90;;;;;;;;;;772774;182;919033;-63
2021/10/18 03:23:18;;;;;;;54.77;32.23;;;;;;;;;;766432;182;919482;-64
2021/10/18 03:25:44;;;;;;;54.88;32.58;;;;;;;;;;765273;182;919521;-64
2021/10/18 03:28:09;;;;;;;53.23;31.83;;;;;;;;;;773383;182;998642;-63
2021/10/18 03:30:35;;;;;;;52.80;31.60;;;;;;;;;;769484;182;920038;-63
2021/10/18 03:33:01;;;;;;;45.63;29.33;;;;;;;;;;769807;182;919331;-64
2021/10/18 03:35:27;;;;;;;47.47;29.20;;;;;;;;;;766290;182;919359;-63
2021/10/18 03:37:53;;;;;;;47.53;29.75;;;;;;;;;;768687;182;919247;-64
2021/10/18 03:40:19;;;;;;;50.43;28.07;;;;;;;;;;768943;182;920081;-64
2021/10/18 03:42:45;;;;;;;51.50;30.27;;;;;;;;;;771866;182;919067;-61
2021/10/18 03:45:11;;;;;;;44.07;28.73;;;;;;;;;;763573;182;919236;-63
2021/10/18 03:47:37;;;;;;;48.27;30.17;;;;;;;;;;765448;182;919582;-62
2021/10/18 03:50:03;;;;;;;48.33;28.80;;;;;;;;;;768056;182;923043;-63
2021/10/18 03:52:29;;;;;;;52.27;29.33;;;;;;;;;;769575;182;917581;-64
2021/10/18 03:54:55;;;;;;;58.00;33.80;;;;;;;;;;772015;182;634765;-63
2021/10/18 03:57:20;;;;;;;51.87;29.03;;;;;;;;;;773093;180;628076;-63
2021/10/18 03:59:46;;;;;;;50.17;29.37;;;;;;;;;;774261;181;633315;-63
2021/10/18 04:02:14;;;;;;;46.00;28.30;;;;;;;;;;774395;182;629308;-64
2021/10/18 04:04:38;;;;;;;58.40;32.23;;;;;;;;;;769771;182;707497;-63
2021/10/18 04:07:04;;;;;;;53.73;29.60;;;;;;;;;;771069;182;918114;-62
2021/10/18 04:09:30;;;;;;;52.27;28.30;;;;;;;;;;767608;182;920929;-62
2021/10/18 04:11:56;;;;;;;51.70;28.17;;;;;;;;;;769457;182;920104;-63
2021/10/18 04:14:21;;;;;;;50.03;29.77;;;;;;;;;;768400;182;919813;-63
2021/10/18 04:16:47;;;;;;;53.10;30.67;;;;;;;;;;774657;182;918978;-63
2021/10/18 04:19:13;;;;;;;46.67;29.00;;;;;;;;;;768655;182;918662;-64
2021/10/18 04:21:39;;;;;;;52.23;32.73;;;;;;;;;;767783;182;930758;-63
2021/10/18 04:24:05;;;;;;;64.83;36.40;;;;;;;;;;775034;182;943096;-63
2021/10/18 04:26:31;;;;;;;56.53;30.87;;;;;;;;;;768633;182;918311;-63
2021/10/18 04:28:57;;;;;;;49.93;31.20;;;;;;;;;;767297;182;919185;-63
2021/10/18 04:31:25;;;;;;;54.43;32.03;;;;;;;;;;774855;182;919325;-63
2021/10/18 04:33:48;;;;;;;52.27;32.00;;;;;;;;;;765332;182;919238;-63
2021/10/18 04:36:14;;;;;;;54.13;31.10;;;;;;;;;;762410;182;919420;-63
2021/10/18 04:38:40;;;;;;;48.40;30.17;;;;;;;;;;764078;182;931685;-62
2021/10/18 04:41:06;;;;;;;46.03;27.50;;;;;;;;;;768132;183;934735;-65
2021/10/18 04:43:32;;;;;;;47.53;28.10;;;;;;;;;;769794;182;816037;-64
2021/10/18 04:45:58;;;;;;;55.80;29.77;;;;;;;;;;766208;182;946344;-64
2021/10/18 04:48:23;;;;;;;41.20;26.37;;;;;;;;;;775980;182;814679;-63
2021/10/18 04:50:49;;;;;;;44.67;28.30;;;;;;;;;;768468;181;622007;-63
2021/10/18 04:53:15;;;;;;;51.07;29.23;;;;;;;;;;775095;182;622193;-65
2021/10/18 04:55:41;;;;;;;53.10;31.47;;;;;;;;;;775716;182;623956;-63
2021/10/18 04:58:07;;;;;;;49.77;29.47;;;;;;;;;;768477;182;918982;-63
2021/10/18 05:00:36;;;;;;;48.33;28.65;;;;;;;;;;769448;182;919913;-62
2021/10/18 05:03:00;;;;;;;48.83;29.30;;;;;;;;;;770799;182;919831;-61
2021/10/18 05:05:25;;;;;;;49.63;29.80;;;;;;;;;;769418;183;920238;-62
2021/10/18 05:07:57;;;;;;;44.70;27.83;;;;;;;;;;769411;180;917456;-63
2021/10/18 05:10:23;;;;;;;52.33;29.40;;;;;;;;;;771528;181;920679;-63
2021/10/18 05:12:49;;;;;;;50.50;29.50;;;;;;;;;;771004;182;921192;-62
2021/10/18 05:15:15;;;;;;;50.70;31.27;;;;;;;;;;769889;182;922836;-62
2021/10/18 05:17:40;;;;;;;40.70;28.62;;;;;;;;;;768602;182;919435;-63
2021/10/18 05:20:07;;;;;;;46.08;28.85;;;;;;;;;;773449;180;916329;-62
2021/10/18 05:22:33;;;;;;;38.67;27.90;;;;;;;;;;773865;182;916019;-63
2021/10/18 05:24:59;;;;;;;52.50;29.37;;;;;;;;;;769378;182;916197;-62
2021/10/18 05:27:25;;;;;;;46.70;27.50;;;;;;;;;;769255;182;924502;-63
2021/10/18 05:29:51;;;;;;;45.93;28.43;;;;;;;;;;775954;182;918544;-63
2021/10/18 05:32:16;;;;;;;47.20;28.10;;;;;;;;;;770585;182;919664;-63
2021/10/18 05:34:42;;;;;;;44.85;31.02;;;;;;;;;;770538;182;920232;-63
2021/10/18 05:37:08;;;;;;;48.93;29.43;;;;;;;;;;776118;182;915616;-63
2021/10/18 05:39:34;;;;;;;53.40;31.87;;;;;;;;;;773737;182;677141;-63
2021/10/18 05:42:00;;;;;;;51.73;30.97;;;;;;;;;;772328;180;630812;-64
2021/10/18 05:44:26;;;;;;;43.27;27.60;;;;;;;;;;774596;182;1017749;-63
2021/10/18 05:46:52;;;;;;;47.50;29.67;;;;;;;;;;770250;182;919232;-63
2021/10/18 05:49:18;;;;;;;34.17;24.83;;;;;;;;;;769597;182;919756;-63
2021/10/18 05:51:43;;;;;;;41.47;26.83;;;;;;;;;;769860;182;918869;-63
2021/10/18 05:54:09;;;;;;;42.17;27.90;;;;;;;;;;770332;182;919388;-63
2021/10/18 05:56:35;;;;;;;45.77;28.17;;;;;;;;;;767087;182;919563;-63
2021/10/18 05:59:01;;;;;;;43.30;27.47;;;;;;;;;;765802;182;919271;-63
2021/10/18 06:01:27;;;;;;;52.67;27.70;;;;;;;;;;772051;182;919214;-63
2021/10/18 06:03:53;;;;;;;39.40;27.07;;;;;;;;;;772225;182;713415;-62
2021/10/18 06:06:19;;;;;;;36.27;26.40;;;;;;;;;;766617;182;919419;-63
2021/10/18 06:08:44;;;;;;;47.17;28.43;;;;;;;;;;775360;182;628688;-63
2021/10/18 06:11:10;;;;;;;44.93;24.87;;;;;;;;;;762640;182;918932;-63
2021/10/18 06:13:36;;;;;;;38.20;26.80;;;;;;;;;;765541;182;918945;-63
2021/10/18 06:16:02;;;;;;;37.30;25.40;;;;;;;;;;767541;182;1021390;-62
2021/10/18 06:18:28;;;;;;;39.30;28.20;;;;;;;;;;777756;179;920098;-62
2021/10/18 06:20:53;;;;;;;40.80;25.57;;;;;;;;;;768547;180;1013063;-62
2021/10/18 06:23:19;;;;;;;34.33;24.42;;;;;;;;;;768279;182;1021507;-62
2021/10/18 06:25:45;;;;;;;36.77;23.70;;;;;;;;;;774707;182;919603;-62
2021/10/18 06:28:11;;;;;;;40.27;25.37;;;;;;;;;;770288;182;920238;-62
2021/10/18 06:30:37;;;;;;;37.27;24.83;;;;;;;;;;767916;182;919092;-62
2021/10/18 06:33:03;;;;;;;45.53;23.40;;;;;;;;;;771713;182;917785;-63
2021/10/18 06:35:29;;;;;;;43.93;24.20;;;;;;;;;;767386;182;919945;-62
2021/10/18 06:37:54;;;;;;;36.63;25.90;;;;;;;;;;768024;182;918515;-63
2021/10/18 06:40:21;;;;;;;42.40;23.38;;;;;;;;;;770055;182;919072;-62
2021/10/18 06:42:46;;;;;;;38.20;23.97;;;;;;;;;;772498;182;930058;-65
2021/10/18 06:45:12;;;;;;;36.37;24.37;;;;;;;;;;767533;182;928353;-64
2021/10/18 06:47:38;;;;;;;36.63;23.15;;;;;;;;;;768787;182;888205;-62
2021/10/18 06:50:04;;;;;;;40.87;22.90;;;;;;;;;;771762;182;920259;-62
2021/10/18 06:52:34;;;;;;;33.63;21.70;;;;;;;;;;769888;182;919394;-62
2021/10/18 06:54:56;;;;;;;30.77;21.85;;;;;;;;;;757809;182;935974;-62
2021/10/18 06:57:22;;;;;;;31.30;19.33;;;;;;;;;;773555;182;920483;-63
2021/10/18 06:59:48;;;;;;;33.07;19.33;;;;;;;;;;770467;182;914455;-65
2021/10/18 07:02:13;;;;;;;40.10;21.95;;;;;;;;;;767063;182;918676;-65
2021/10/18 07:04:39;;;;;;;35.27;21.73;;;;;;;;;;773401;182;919152;-65
2021/10/18 07:07:05;;;;;;;29.43;21.70;;;;;;;;;;769015;182;920461;-65
2021/10/18 07:09:31;;;;;;;32.90;22.10;;;;;;;;;;768429;182;920457;-65
2021/10/18 07:11:57;;;;;;;28.33;20.73;;;;;;;;;;766653;182;919795;-65
2021/10/18 07:14:23;;;;;;;31.60;21.08;;;;;;;;;;771574;182;1024691;-65
2021/10/18 07:16:48;;;;;;;35.90;20.53;;;;;;;;;;766289;182;1124292;-65
2021/10/18 07:19:14;;;;;;;36.00;23.17;;;;;;;;;;766546;182;1031750;-67
2021/10/18 07:21:42;;;;;;;31.80;21.50;;;;;;;;;;771105;182;920056;-64
2021/10/18 07:24:06;;;;;;;36.67;19.97;;;;;;;;;;765365;182;920304;-65
2021/10/18 07:26:32;;;;;;;29.77;19.77;;;;;;;;;;768015;182;915513;-65
2021/10/18 07:28:58;;;;;;;31.97;20.53;;;;;;;;;;771945;182;919089;-65
2021/10/18 07:31:24;;;;;;;32.10;18.33;;;;;;;;;;769157;181;919644;-65
2021/10/18 07:33:50;;;;;;;26.87;18.97;;;;;;;;;;770421;181;915816;-65
2021/10/18 07:36:24;;;;;;;27.90;18.23;;;;;;;;;;769417;182;920413;-65
2021/10/18 07:38:45;;;;;;;26.13;19.33;;;;;;;;;;770852;181;918564;-65
2021/10/18 07:41:11;;;;;;;35.10;20.17;;;;;;;;;;768706;182;918926;-65
2021/10/18 07:43:36;;;;;;;28.53;19.53;;;;;;;;;;768180;182;920196;-69
2021/10/18 07:46:02;;;;;;;26.50;18.00;;;;;;;;;;773703;182;919488;-65
2021/10/18 07:48:28;;;;;;;29.00;17.30;;;;;;;;;;769319;182;918799;-65
2021/10/18 07:50:55;;;;;;;35.97;19.33;;;;;;;;;;769364;182;919246;-65
2021/10/18 07:53:20;;;;;;;26.53;17.20;;;;;;;;;;771049;182;920071;-65
2021/10/18 07:55:46;;;;;;;26.90;18.17;;;;;;;;;;767363;182;922043;-65
2021/10/18 07:58:12;;;;;;;27.60;17.90;;;;;;;;;;764470;182;915548;-65
2021/10/18 08:00:37;;;;;;;28.33;18.40;;;;;;;;;;765181;182;1018428;-65
2021/10/18 08:03:03;;;;;;;30.93;17.47;;;;;;;;;;771652;182;919785;-65
2021/10/18 08:05:29;;;;;;;30.10;19.60;;;;;;;;;;767525;180;919223;-65
2021/10/18 08:07:55;;;;;;;22.43;16.80;;;;;;;;;;770220;182;1004203;-67
2021/10/18 08:10:24;;;;;;;25.05;17.65;;;;;;;;;;772646;182;919171;-64
2021/10/18 08:12:54;;;;;;;29.10;18.80;;;;;;;;;;769815;182;919979;-65
2021/10/18 08:15:20;;;;;;;24.90;17.00;;;;;;;;;;764178;182;918956;-65
2021/10/18 08:17:46;;;;;;;24.03;16.90;;;;;;;;;;768647;182;919839;-65
2021/10/18 08:20:12;;;;;;;26.23;19.50;;;;;;;;;;774883;182;918332;-65
2021/10/18 08:22:38;;;;;;;24.63;18.50;;;;;;;;;;766474;182;947470;-65
2021/10/18 08:25:04;;;;;;;28.00;16.57;;;;;;;;;;768693;182;919265;-65
2021/10/18 08:27:30;;;;;;;24.97;17.23;;;;;;;;;;773610;182;919165;-65
2021/10/18 08:29:56;;;;;;;27.43;18.80;;;;;;;;;;765465;182;919534;-65
2021/10/18 08:32:22;;;;;;;25.80;16.90;;;;;;;;;;766634;182;1001361;-66
2021/10/18 08:34:48;;;;;;;21.90;15.17;;;;;;;;;;773410;182;920026;-65
2021/10/18 08:37:14;;;;;;;23.23;18.00;;;;;;;;;;766878;182;919662;-65
2021/10/18 08:42:15;;;;;;;30.93;16.67;;;;;;;;;;769711;180;920651;-64
2021/10/18 08:44:37;;;;;;;27.47;17.57;;;;;;;;;;773918;181;1022762;-65
2021/10/18 08:47:03;;;;;;;26.57;16.80;;;;;;;;;;761266;181;1983652;-65
2021/10/18 08:49:29;;;;;;;28.35;17.65;;;;;;;;;;765246;182;962308;-65
2021/10/18 08:51:55;;;;;;;25.60;17.73;;;;;;;;;;772795;182;916681;-65
2021/10/18 08:54:21;;;;;;;19.30;16.57;;;;;;;;;;767429;182;920426;-65
2021/10/18 08:56:46;;;;;;;22.63;15.50;;;;;;;;;;767566;182;915196;-65
2021/10/18 08:59:12;;;;;;;24.93;16.90;;;;;;;;;;767852;182;919191;-65
2021/10/18 09:01:39;;;;;;;20.50;14.87;;;;;;;;;;772804;182;918670;-65
2021/10/18 09:04:11;;;;;;;20.70;14.60;;;;;;;;;;767622;182;920225;-65
2021/10/18 09:06:37;;;;;;;26.07;15.63;;;;;;;;;;768220;182;917441;-64
2021/10/18 09:09:04;;;;;;;21.60;16.07;;;;;;;;;;773414;182;919356;-65
2021/10/18 09:11:29;;;;;;;25.13;15.47;;;;;;;;;;768012;182;919497;-66
2021/10/18 09:13:56;;;;;;;28.27;14.00;;;;;;;;;;765048;182;920182;-64
2021/10/18 09:16:23;;;;;;;17.50;11.93;;;;;;;;;;768105;181;918301;-65
2021/10/18 09:18:58;;;;;;;20.27;13.38;;;;;;;;;;773657;182;919297;-65
2021/10/18 09:21:26;;;;;;;22.53;13.37;;;;;;;;;;767675;182;918665;-66
2021/10/18 09:23:52;;;;;;;21.55;15.48;;;;;;;;;;767667;182;918738;-64
2021/10/18 09:26:18;;;;;;;20.10;15.07;;;;;;;;;;768160;182;924393;-63
2021/10/18 09:28:44;;;;;;;22.93;16.13;;;;;;;;;;772370;182;918527;-63
2021/10/18 09:31:15;;;;;;;17.77;14.70;;;;;;;;;;765271;182;987917;-64
2021/10/18 09:33:44;;;;;;;24.05;15.00;;;;;;;;;;767611;182;919208;-63
2021/10/18 09:36:13;;;;;;;19.70;15.73;;;;;;;;;;772433;182;922178;-62
2021/10/18 09:38:34;;;;;;;18.03;13.20;;;;;;;;;;769902;182;947614;-63
2021/10/18 09:41:00;;;;;;;17.20;13.60;;;;;;;;;;763379;182;919135;-63
2021/10/18 09:43:31;;;;;;;20.20;13.90;;;;;;;;;;767205;182;917505;-63
2021/10/18 09:46:02;;;;;;;23.10;14.50;;;;;;;;;;773631;182;924130;-63
2021/10/18 10:52:54;;;;;;;28.27;19.57;;;;;;;;;;773613;182;918811;-65
2021/10/18 10:55:21;;;;;;;27.40;19.30;;;;;;;;;;772067;182;919936;-64
2021/10/18 10:57:47;;;;;;;34.40;20.17;;;;;;;;;;767407;182;919490;-64
2021/10/18 11:00:18;;;;;;;32.90;19.47;;;;;;;;;;767365;182;919291;-65
2021/10/18 11:02:44;;;;;;;26.37;20.87;;;;;;;;;;766940;182;918453;-65
2021/10/18 11:05:10;;;;;;;30.13;18.43;;;;;;;;;;774588;180;918655;-64
2021/10/18 11:07:51;;;;;;;28.50;20.43;;;;;;;;;;769670;181;988951;-65
2021/10/18 11:10:17;;;;;;;45.13;21.30;;;;;;;;;;768874;181;919592;-65
2021/10/18 11:12:43;;;;;;;28.10;19.10;;;;;;;;;;768358;182;919068;-65
2021/10/18 11:15:09;;;;;;;28.20;20.20;;;;;;;;;;775347;182;919242;-65
2021/10/18 11:17:35;;;;;;;29.90;21.50;;;;;;;;;;765486;182;919801;-65
2021/10/18 11:20:06;;;;;;;27.03;18.30;;;;;;;;;;767902;182;919984;-65
2021/10/18 11:22:33;;;;;;;34.80;21.07;;;;;;;;;;766910;182;919634;-64
2021/10/18 11:24:59;;;;;;;33.90;21.63;;;;;;;;;;772591;182;918582;-65
2021/10/18 11:27:28;;;;;;;32.67;21.33;;;;;;;;;;768706;182;919170;-64
2021/10/18 11:29:54;;;;;;;32.03;20.08;;;;;;;;;;764261;182;1033544;-65
2021/10/18 11:32:20;;;;;;;27.30;19.80;;;;;;;;;;774074;182;919721;-65
2021/10/18 11:34:46;;;;;;;35.00;22.30;;;;;;;;;;766533;182;923330;-65
2021/10/18 11:37:12;;;;;;;32.27;20.87;;;;;;;;;;767978;182;919030;-65
2021/10/18 11:39:38;;;;;;;31.13;20.00;;;;;;;;;;766638;182;918794;-63
2021/10/18 11:42:05;;;;;;;29.13;21.17;;;;;;;;;;773162;179;921037;-63
2021/10/18 11:44:38;;;;;;;32.80;22.07;;;;;;;;;;767003;182;1023821;-63
2021/10/18 11:47:03;;;;;;;36.83;21.03;;;;;;;;;;765486;182;919723;-63
2021/10/18 11:49:29;;;;;;;32.27;22.03;;;;;;;;;;769788;182;918028;-63
2021/10/18 11:51:55;;;;;;;29.90;20.00;;;;;;;;;;766779;182;920149;-64
2021/10/18 11:54:21;;;;;;;27.67;18.23;;;;;;;;;;767699;182;920170;-63
2021/10/18 11:56:47;;;;;;;26.97;17.90;;;;;;;;;;766544;180;923453;-63
2021/10/18 11:59:12;;;;;;;30.20;19.20;;;;;;;;;;771015;179;919999;-63
2021/10/18 12:01:38;;;;;;;31.17;21.77;;;;;;;;;;767152;182;914724;-64
2021/10/18 12:04:06;;;;;;;27.50;19.37;;;;;;;;;;766446;182;916581;-63
2021/10/18 12:06:30;;;;;;;30.30;19.37;;;;;;;;;;770342;182;920386;-63
2021/10/18 12:08:57;;;;;;;26.65;15.85;;;;;;;;;;767989;182;919805;-63
2021/10/18 12:11:22;;;;;;;23.27;14.20;;;;;;;;;;768163;182;916159;-63
2021/10/18 12:13:48;;;;;;;26.07;17.30;;;;;;;;;;773143;182;893330;-63
2021/10/18 12:16:20;;;;;;;24.60;17.10;;;;;;;;;;764535;182;920614;-63
2021/10/18 12:18:45;;;;;;;27.70;21.13;;;;;;;;;;768940;180;918674;-63
2021/10/18 12:21:11;;;;;;;29.08;15.82;;;;;;;;;;768389;179;910966;-63
2021/10/18 12:23:52;;;;;;;23.50;15.38;;;;;;;;;;776507;182;916694;-63
2021/10/18 12:26:19;;;;;;;25.50;16.07;;;;;;;;;;766946;182;915615;-65
2021/10/18 12:28:45;;;;;;;19.03;9.93;;;;;;;;;;769938;180;921232;-64
2021/10/18 12:31:16;;;;;;;23.42;9.65;;;;;;;;;;769949;182;920363;-64
2021/10/18 12:33:42;;;;;;;13.95;10.32;;;;;;;;;;769631;182;1021903;-64
2021/10/18 12:36:08;;;;;;;18.43;9.90;;;;;;;;;;767454;182;919975;-64
2021/10/18 12:38:36;;;;;;;15.67;10.37;;;;;;;;;;767302;182;919127;-63
2021/10/18 12:41:06;;;;;;;13.40;8.97;;;;;;;;;;768301;182;919753;-63
2021/10/18 12:43:33;;;;;;;15.30;9.30;;;;;;;;;;768468;182;919658;-63
2021/10/18 12:46:08;;;;;;;16.83;10.43;;;;;;;;;;772725;182;892866;-65
2021/10/18 12:48:34;;;;;;;27.43;16.73;;;;;;;;;;770762;182;919677;-63
2021/10/18 12:50:59;;;;;;;24.27;15.90;;;;;;;;;;763213;182;919448;-63
2021/10/18 12:53:26;;;;;;;33.03;17.07;;;;;;;;;;773670;182;918947;-63
2021/10/18 12:55:52;;;;;;;24.33;16.20;;;;;;;;;;766529;182;920617;-63
2021/10/18 12:58:18;;;;;;;23.50;15.60;;;;;;;;;;761835;182;921235;-65
2021/10/18 13:00:44;;;;;;;23.60;13.90;;;;;;;;;;772719;182;920636;-64
2021/10/18 13:03:18;;;;;;;19.47;11.30;;;;;;;;;;767545;182;921474;-64
2021/10/18 13:05:46;;;;;;;16.33;10.10;;;;;;;;;;766814;182;918993;-65
2021/10/18 13:08:11;;;;;;;17.13;11.00;;;;;;;;;;769283;182;916508;-65
2021/10/18 13:10:37;;;;;;;12.60;8.47;;;;;;;;;;774022;182;1004555;-65
2021/10/18 13:13:03;;;;;;;25.97;14.37;;;;;;;;;;765083;182;916925;-64
2021/10/18 13:15:29;;;;;;;24.40;14.20;;;;;;;;;;764655;182;920029;-64
2021/10/18 13:17:55;;;;;;;23.97;16.40;;;;;;;;;;769406;182;919824;-65
2021/10/18 13:20:22;;;;;;;24.63;14.60;;;;;;;;;;776453;179;918592;-64
2021/10/18 13:22:46;;;;;;;23.63;15.53;;;;;;;;;;769508;182;906160;-65
2021/10/18 13:25:12;;;;;;;26.77;17.20;;;;;;;;;;767906;179;919555;-65
2021/10/18 13:27:38;;;;;;;28.23;16.63;;;;;;;;;;774745;182;1012450;-65
2021/10/18 13:30:04;;;;;;;28.20;16.57;;;;;;;;;;771845;181;920431;-66
2021/10/18 13:32:30;;;;;;;31.17;17.08;;;;;;;;;;769759;181;919960;-65
2021/10/18 13:34:57;;;;;;;24.57;18.10;;;;;;;;;;774011;182;919362;-66
2021/10/18 13:37:22;;;;;;;29.10;20.83;;;;;;;;;;771080;182;918725;-64
2021/10/18 13:39:48;;;;;;;33.50;16.40;;;;;;;;;;768892;182;919225;-65
2021/10/18 13:42:13;;;;;;;27.03;18.10;;;;;;;;;;769809;182;1021745;-67
2021/10/18 13:44:39;;;;;;;33.83;18.47;;;;;;;;;;769861;182;919314;-64
2021/10/18 13:47:05;;;;;;;28.20;17.90;;;;;;;;;;766630;182;919080;-65
2021/10/18 13:49:31;;;;;;;43.65;18.73;;;;;;;;;;764295;182;921704;-63
2021/10/18 13:51:57;;;;;;;24.53;18.67;;;;;;;;;;774787;182;918451;-65
2021/10/18 13:54:23;;;;;;;27.20;19.03;;;;;;;;;;769283;182;920638;-64
2021/10/18 13:56:48;;;;;;;27.40;18.37;;;;;;;;;;762091;182;919175;-65
2021/10/18 13:59:17;;;;;;;31.63;17.27;;;;;;;;;;774211;182;918573;-65
2021/10/18 14:01:40;;;;;;;26.95;18.65;;;;;;;;;;764040;182;919671;-64
2021/10/18 14:04:06;;;;;;;30.03;18.27;;;;;;;;;;764583;182;921364;-65
2021/10/18 14:06:32;;;;;;;32.03;19.70;;;;;;;;;;770377;182;917409;-64
2021/10/18 14:08:58;;;;;;;30.70;20.73;;;;;;;;;;766204;182;914853;-65
2021/10/18 14:11:24;;;;;;;33.33;21.20;;;;;;;;;;766845;182;916670;-65
2021/10/18 14:13:49;;;;;;;28.53;18.60;;;;;;;;;;766779;182;915900;-65
2021/10/18 14:16:15;;;;;;;26.83;18.80;;;;;;;;;;774206;182;919024;-64
2021/10/18 14:18:41;;;;;;;29.70;19.53;;;;;;;;;;763321;182;920984;-66
2021/10/18 14:21:07;;;;;;;33.67;19.33;;;;;;;;;;770454;182;627270;-65
2021/10/18 14:23:33;;;;;;;35.60;19.10;;;;;;;;;;773551;182;618880;-64
2021/10/18 14:25:59;;;;;;;34.30;21.33;;;;;;;;;;767524;182;919841;-64
2021/10/18 14:28:25;;;;;;;31.40;19.67;;;;;;;;;;768477;182;919913;-65
2021/10/18 14:30:50;;;;;;;30.47;19.17;;;;;;;;;;776783;179;626916;-65
2021/10/18 14:33:16;;;;;;;25.20;18.20;;;;;;;;;;767577;182;919507;-65
2021/10/18 14:35:42;;;;;;;35.70;21.63;;;;;;;;;;774452;179;623284;-66
2021/10/18 14:38:08;;;;;;;23.43;17.37;;;;;;;;;;770506;182;816576;-65
2021/10/18 14:40:34;;;;;;;30.00;19.13;;;;;;;;;;768105;182;629342;-65
2021/10/18 14:43:00;;;;;;;26.77;20.07;;;;;;;;;;771992;181;700851;-65
2021/10/18 14:45:25;;;;;;;30.83;20.07;;;;;;;;;;775197;182;621993;-64
2021/10/18 14:47:51;;;;;;;30.07;20.27;;;;;;;;;;778399;182;619154;-65
2021/10/18 14:50:18;;;;;;;34.70;21.10;;;;;;;;;;767731;182;647704;-65
2021/10/18 14:52:44;;;;;;;33.20;23.13;;;;;;;;;;775080;182;634573;-66
2021/10/18 14:55:09;;;;;;;29.70;18.93;;;;;;;;;;777211;182;625925;-66
2021/10/18 14:57:35;;;;;;;38.53;19.00;;;;;;;;;;774354;182;631633;-66
2021/10/18 15:00:01;;;;;;;29.50;19.00;;;;;;;;;;773705;182;652409;-65
2021/10/18 15:02:27;;;;;;;36.37;22.33;;;;;;;;;;773450;182;637531;-64
2021/10/18 15:04:55;;;;;;;35.13;22.40;;;;;;;;;;774334;180;620593;-66